sensor_id;sensor_type;location;lat;lon;timestamp;temperature;humidity
67750;DHT22;54550;48.838;8.828;2023-04-25T00:01:11;5.50;99.90
67750;DHT22;54550;48.838;8.828;2023-04-25T00:03:38;5.40;99.90
67750;DHT22;54550;48.838;8.828;2023-04-25T00:06:04;5.40;99.90
67750;DHT22;54550;48.838;8.828;2023-04-25T00:08:30;5.40;99.90
67750;DHT22;54550;48.838;8.828;2023-04-25T00:10:57;5.20;99.90
67750;DHT22;54550;48.838;8.828;2023-04-25T00:13:22;5.10;99.90
67750;DHT22;54550;48.838;8.828;2023-04-25T00:15:48;5.00;99.90
67750;DHT22;54550;48.838;8.828;2023-04-25T00:18:14;4.90;99.90
67750;DHT22;54550;48.838;8.828;2023-04-25T00:20:40;5.00;99.90
67750;DHT22;54550;48.838;8.828;2023-04-25T00:23:09;5.10;99.90
67750;DHT22;54550;48.838;8.828;2023-04-25T00:25:35;5.20;99.90
67750;DHT22;54550;48.838;8.828;2023-04-25T00:28:01;5.10;99.90
67750;DHT22;54550;48.838;8.828;2023-04-25T00:30:26;5.10;99.90
67750;DHT22;54550;48.838;8.828;2023-04-25T00:32:52;5.20;99.90
67750;DHT22;54550;48.838;8.828;2023-04-25T00:35:18;5.20;99.90
67750;DHT22;54550;48.838;8.828;2023-04-25T00:37:44;5.10;99.90
67750;DHT22;54550;48.838;8.828;2023-04-25T00:40:10;5.10;99.90
67750;DHT22;54550;48.838;8.828;2023-04-25T00:42:36;5.20;99.90
67750;DHT22;54550;48.838;8.828;2023-04-25T00:45:05;5.30;99.90
67750;DHT22;54550;48.838;8.828;2023-04-25T00:47:32;5.40;99.90
67750;DHT22;54550;48.838;8.828;2023-04-25T00:49:58;5.50;99.90
67750;DHT22;54550;48.838;8.828;2023-04-25T00:52:23;5.40;99.90
67750;DHT22;54550;48.838;8.828;2023-04-25T00:54:49;5.40;99.90
67750;DHT22;54550;48.838;8.828;2023-04-25T00:57:15;5.30;99.90
67750;DHT22;54550;48.838;8.828;2023-04-25T00:59:44;5.20;99.90
67750;DHT22;54550;48.838;8.828;2023-04-25T01:02:10;5.20;99.90
67750;DHT22;54550;48.838;8.828;2023-04-25T01:04:36;5.20;99.90
67750;DHT22;54550;48.838;8.828;2023-04-25T01:07:02;5.10;99.90
67750;DHT22;54550;48.838;8.828;2023-04-25T01:09:30;5.20;99.90
67750;DHT22;54550;48.838;8.828;2023-04-25T01:11:57;5.20;99.90
67750;DHT22;54550;48.838;8.828;2023-04-25T01:14:23;5.20;99.90
67750;DHT22;54550;48.838;8.828;2023-04-25T01:16:48;5.10;99.90
67750;DHT22;54550;48.838;8.828;2023-04-25T01:19:16;5.10;99.90
67750;DHT22;54550;48.838;8.828;2023-04-25T01:21:43;5.00;99.90
67750;DHT22;54550;48.838;8.828;2023-04-25T01:24:09;5.00;99.90
67750;DHT22;54550;48.838;8.828;2023-04-25T01:26:35;4.90;99.90
67750;DHT22;54550;48.838;8.828;2023-04-25T01:29:01;4.90;99.90
67750;DHT22;54550;48.838;8.828;2023-04-25T01:31:28;5.00;99.90
67750;DHT22;54550;48.838;8.828;2023-04-25T01:33:55;5.00;99.90
67750;DHT22;54550;48.838;8.828;2023-04-25T01:36:21;5.00;99.90
67750;DHT22;54550;48.838;8.828;2023-04-25T01:38:47;5.10;99.90
67750;DHT22;54550;48.838;8.828;2023-04-25T01:41:14;5.20;99.90
67750;DHT22;54550;48.838;8.828;2023-04-25T01:43:40;5.10;99.90
67750;DHT22;54550;48.838;8.828;2023-04-25T01:46:06;5.20;99.90
67750;DHT22;54550;48.838;8.828;2023-04-25T01:48:31;5.20;99.90
67750;DHT22;54550;48.838;8.828;2023-04-25T01:50:57;5.10;99.90
67750;DHT22;54550;48.838;8.828;2023-04-25T01:53:23;5.20;99.90
67750;DHT22;54550;48.838;8.828;2023-04-25T01:55:49;5.20;99.90
67750;DHT22;54550;48.838;8.828;2023-04-25T01:58:15;5.20;99.90
67750;DHT22;54550;48.838;8.828;2023-04-25T02:00:40;5.20;99.90
67750;DHT22;54550;48.838;8.828;2023-04-25T02:03:07;5.10;99.90
67750;DHT22;54550;48.838;8.828;2023-04-25T02:05:37;5.10;99.90
67750;DHT22;54550;48.838;8.828;2023-04-25T02:08:05;5.00;99.90
67750;DHT22;54550;48.838;8.828;2023-04-25T02:10:31;5.00;99.90
67750;DHT22;54550;48.838;8.828;2023-04-25T02:12:57;4.90;99.90
67750;DHT22;54550;48.838;8.828;2023-04-25T02:15:23;4.80;99.90
67750;DHT22;54550;48.838;8.828;2023-04-25T02:17:48;4.80;99.90
67750;DHT22;54550;48.838;8.828;2023-04-25T02:20:14;4.80;99.90
67750;DHT22;54550;48.838;8.828;2023-04-25T02:22:41;4.80;99.90
67750;DHT22;54550;48.838;8.828;2023-04-25T02:25:08;4.80;99.90
67750;DHT22;54550;48.838;8.828;2023-04-25T02:27:34;4.80;99.90
67750;DHT22;54550;48.838;8.828;2023-04-25T02:30:00;4.70;99.90
67750;DHT22;54550;48.838;8.828;2023-04-25T02:32:26;4.60;99.90
67750;DHT22;54550;48.838;8.828;2023-04-25T02:34:52;4.50;99.90
67750;DHT22;54550;48.838;8.828;2023-04-25T02:37:18;4.50;99.90
67750;DHT22;54550;48.838;8.828;2023-04-25T02:39:44;4.60;99.90
67750;DHT22;54550;48.838;8.828;2023-04-25T02:42:09;4.70;99.90
67750;DHT22;54550;48.838;8.828;2023-04-25T02:44:35;4.90;99.90
67750;DHT22;54550;48.838;8.828;2023-04-25T02:47:00;5.00;99.90
67750;DHT22;54550;48.838;8.828;2023-04-25T02:49:26;5.10;99.90
67750;DHT22;54550;48.838;8.828;2023-04-25T02:51:52;5.20;99.90
67750;DHT22;54550;48.838;8.828;2023-04-25T02:54:17;5.30;99.90
67750;DHT22;54550;48.838;8.828;2023-04-25T02:56:43;5.20;99.90
67750;DHT22;54550;48.838;8.828;2023-04-25T02:59:08;5.20;99.90
67750;DHT22;54550;48.838;8.828;2023-04-25T03:01:34;5.20;99.90
67750;DHT22;54550;48.838;8.828;2023-04-25T03:03:59;5.20;99.90
67750;DHT22;54550;48.838;8.828;2023-04-25T03:06:25;5.10;99.90
67750;DHT22;54550;48.838;8.828;2023-04-25T03:08:50;4.90;99.90
67750;DHT22;54550;48.838;8.828;2023-04-25T03:11:16;4.90;99.90
67750;DHT22;54550;48.838;8.828;2023-04-25T03:13:41;5.00;99.90
67750;DHT22;54550;48.838;8.828;2023-04-25T03:16:07;5.00;99.90
67750;DHT22;54550;48.838;8.828;2023-04-25T03:18:32;5.00;99.90
67750;DHT22;54550;48.838;8.828;2023-04-25T03:20:58;5.00;99.90
67750;DHT22;54550;48.838;8.828;2023-04-25T03:23:24;5.00;99.90
67750;DHT22;54550;48.838;8.828;2023-04-25T03:25:49;5.00;99.90
67750;DHT22;54550;48.838;8.828;2023-04-25T03:28:15;5.00;99.90
67750;DHT22;54550;48.838;8.828;2023-04-25T03:30:40;5.10;99.90
67750;DHT22;54550;48.838;8.828;2023-04-25T03:33:06;5.10;99.90
67750;DHT22;54550;48.838;8.828;2023-04-25T03:35:32;5.20;99.90
67750;DHT22;54550;48.838;8.828;2023-04-25T03:37:57;5.20;99.90
67750;DHT22;54550;48.838;8.828;2023-04-25T03:40:23;5.20;99.90
67750;DHT22;54550;48.838;8.828;2023-04-25T03:42:48;5.20;99.90
67750;DHT22;54550;48.838;8.828;2023-04-25T03:45:14;5.20;99.90
67750;DHT22;54550;48.838;8.828;2023-04-25T03:47:39;5.20;99.90
67750;DHT22;54550;48.838;8.828;2023-04-25T03:50:05;5.20;99.90
67750;DHT22;54550;48.838;8.828;2023-04-25T03:52:31;5.20;99.90
67750;DHT22;54550;48.838;8.828;2023-04-25T03:54:57;5.20;99.90
67750;DHT22;54550;48.838;8.828;2023-04-25T03:57:22;5.20;99.90
67750;DHT22;54550;48.838;8.828;2023-04-25T03:59:48;5.20;99.90
67750;DHT22;54550;48.838;8.828;2023-04-25T04:02:13;5.10;99.90
67750;DHT22;54550;48.838;8.828;2023-04-25T04:04:39;5.10;99.90
67750;DHT22;54550;48.838;8.828;2023-04-25T04:07:04;5.10;99.90
67750;DHT22;54550;48.838;8.828;2023-04-25T04:09:30;5.10;99.90
67750;DHT22;54550;48.838;8.828;2023-04-25T04:11:56;5.10;99.90
67750;DHT22;54550;48.838;8.828;2023-04-25T04:14:21;5.10;99.90
67750;DHT22;54550;48.838;8.828;2023-04-25T04:16:47;5.10;99.90
67750;DHT22;54550;48.838;8.828;2023-04-25T04:19:12;5.10;99.90
67750;DHT22;54550;48.838;8.828;2023-04-25T04:21:38;5.10;99.90
67750;DHT22;54550;48.838;8.828;2023-04-25T04:24:04;5.20;99.90
67750;DHT22;54550;48.838;8.828;2023-04-25T04:26:32;5.20;99.90
67750;DHT22;54550;48.838;8.828;2023-04-25T04:28:58;5.20;99.90
67750;DHT22;54550;48.838;8.828;2023-04-25T04:31:24;5.20;99.90
67750;DHT22;54550;48.838;8.828;2023-04-25T04:33:50;5.30;99.90
67750;DHT22;54550;48.838;8.828;2023-04-25T04:36:16;5.30;99.90
67750;DHT22;54550;48.838;8.828;2023-04-25T04:38:45;5.30;99.90
67750;DHT22;54550;48.838;8.828;2023-04-25T04:41:10;5.40;99.90
67750;DHT22;54550;48.838;8.828;2023-04-25T04:43:36;5.40;99.90
67750;DHT22;54550;48.838;8.828;2023-04-25T04:46:02;5.40;99.90
67750;DHT22;54550;48.838;8.828;2023-04-25T04:48:29;5.40;99.90
67750;DHT22;54550;48.838;8.828;2023-04-25T04:50:58;5.40;99.90
67750;DHT22;54550;48.838;8.828;2023-04-25T04:53:23;5.30;99.90
67750;DHT22;54550;48.838;8.828;2023-04-25T04:55:49;5.20;99.90
67750;DHT22;54550;48.838;8.828;2023-04-25T04:58:15;5.20;99.90
67750;DHT22;54550;48.838;8.828;2023-04-25T05:00:40;5.10;99.90
67750;DHT22;54550;48.838;8.828;2023-04-25T05:03:06;5.00;99.90
67750;DHT22;54550;48.838;8.828;2023-04-25T05:05:31;4.90;99.90
67750;DHT22;54550;48.838;8.828;2023-04-25T05:07:57;4.80;99.90
67750;DHT22;54550;48.838;8.828;2023-04-25T05:10:22;4.90;99.90
67750;DHT22;54550;48.838;8.828;2023-04-25T05:12:48;4.80;99.90
67750;DHT22;54550;48.838;8.828;2023-04-25T05:15:14;4.80;99.90
67750;DHT22;54550;48.838;8.828;2023-04-25T05:17:39;4.80;99.90
67750;DHT22;54550;48.838;8.828;2023-04-25T05:20:06;4.90;99.90
67750;DHT22;54550;48.838;8.828;2023-04-25T05:22:33;4.90;99.90
67750;DHT22;54550;48.838;8.828;2023-04-25T05:24:59;5.00;99.90
67750;DHT22;54550;48.838;8.828;2023-04-25T05:27:24;5.00;99.90
67750;DHT22;54550;48.838;8.828;2023-04-25T05:29:50;5.00;99.90
67750;DHT22;54550;48.838;8.828;2023-04-25T05:32:16;5.00;99.90
67750;DHT22;54550;48.838;8.828;2023-04-25T05:34:41;5.10;99.90
67750;DHT22;54550;48.838;8.828;2023-04-25T05:37:07;5.00;99.90
67750;DHT22;54550;48.838;8.828;2023-04-25T05:39:33;5.00;99.90
67750;DHT22;54550;48.838;8.828;2023-04-25T05:41:58;5.00;99.90
67750;DHT22;54550;48.838;8.828;2023-04-25T05:44:24;5.00;99.90
67750;DHT22;54550;48.838;8.828;2023-04-25T05:46:50;5.00;99.90
67750;DHT22;54550;48.838;8.828;2023-04-25T05:49:15;5.00;99.90
67750;DHT22;54550;48.838;8.828;2023-04-25T05:51:41;5.00;99.90
67750;DHT22;54550;48.838;8.828;2023-04-25T05:54:07;5.00;99.90
67750;DHT22;54550;48.838;8.828;2023-04-25T05:56:32;5.10;99.90
67750;DHT22;54550;48.838;8.828;2023-04-25T05:58:58;5.20;99.90
67750;DHT22;54550;48.838;8.828;2023-04-25T06:01:23;5.30;99.90
67750;DHT22;54550;48.838;8.828;2023-04-25T06:03:49;5.40;99.90
67750;DHT22;54550;48.838;8.828;2023-04-25T06:06:16;5.40;99.90
67750;DHT22;54550;48.838;8.828;2023-04-25T06:08:42;5.50;99.90
67750;DHT22;54550;48.838;8.828;2023-04-25T06:11:07;5.50;99.90
67750;DHT22;54550;48.838;8.828;2023-04-25T06:13:33;5.50;99.90
67750;DHT22;54550;48.838;8.828;2023-04-25T06:15:58;5.40;99.90
67750;DHT22;54550;48.838;8.828;2023-04-25T06:18:24;5.50;99.90
67750;DHT22;54550;48.838;8.828;2023-04-25T06:20:50;5.60;99.90
67750;DHT22;54550;48.838;8.828;2023-04-25T06:23:15;5.60;99.90
67750;DHT22;54550;48.838;8.828;2023-04-25T06:25:41;5.70;99.90
67750;DHT22;54550;48.838;8.828;2023-04-25T06:28:06;5.70;99.90
67750;DHT22;54550;48.838;8.828;2023-04-25T06:30:32;5.70;99.90
67750;DHT22;54550;48.838;8.828;2023-04-25T06:32:57;5.70;99.90
67750;DHT22;54550;48.838;8.828;2023-04-25T06:35:23;5.60;99.90
67750;DHT22;54550;48.838;8.828;2023-04-25T06:37:48;5.60;99.90
67750;DHT22;54550;48.838;8.828;2023-04-25T06:40:14;5.60;99.90
67750;DHT22;54550;48.838;8.828;2023-04-25T06:42:40;5.60;99.90
67750;DHT22;54550;48.838;8.828;2023-04-25T06:45:06;5.60;99.90
67750;DHT22;54550;48.838;8.828;2023-04-25T06:47:31;5.50;99.90
67750;DHT22;54550;48.838;8.828;2023-04-25T06:49:57;5.50;99.90
67750;DHT22;54550;48.838;8.828;2023-04-25T06:52:22;5.50;99.90
67750;DHT22;54550;48.838;8.828;2023-04-25T06:54:48;5.60;99.90
67750;DHT22;54550;48.838;8.828;2023-04-25T06:57:14;5.60;99.90
67750;DHT22;54550;48.838;8.828;2023-04-25T06:59:40;5.60;99.90
67750;DHT22;54550;48.838;8.828;2023-04-25T07:02:05;5.70;99.90
67750;DHT22;54550;48.838;8.828;2023-04-25T07:04:31;5.80;99.90
67750;DHT22;54550;48.838;8.828;2023-04-25T07:06:57;5.90;99.90
67750;DHT22;54550;48.838;8.828;2023-04-25T07:09:22;6.00;99.90
67750;DHT22;54550;48.838;8.828;2023-04-25T07:11:48;6.00;99.90
67750;DHT22;54550;48.838;8.828;2023-04-25T07:14:13;6.00;99.90
67750;DHT22;54550;48.838;8.828;2023-04-25T07:16:39;6.10;99.90
67750;DHT22;54550;48.838;8.828;2023-04-25T07:19:05;6.10;99.90
67750;DHT22;54550;48.838;8.828;2023-04-25T07:21:31;6.10;99.90
67750;DHT22;54550;48.838;8.828;2023-04-25T07:23:57;6.10;99.90
67750;DHT22;54550;48.838;8.828;2023-04-25T07:26:22;6.00;99.90
67750;DHT22;54550;48.838;8.828;2023-04-25T07:28:48;6.00;99.90
67750;DHT22;54550;48.838;8.828;2023-04-25T07:31:16;6.00;99.90
67750;DHT22;54550;48.838;8.828;2023-04-25T07:33:43;6.00;99.90
67750;DHT22;54550;48.838;8.828;2023-04-25T07:36:10;6.10;99.90
67750;DHT22;54550;48.838;8.828;2023-04-25T07:38:35;6.10;99.90
67750;DHT22;54550;48.838;8.828;2023-04-25T07:41:01;6.10;99.90
67750;DHT22;54550;48.838;8.828;2023-04-25T07:43:27;6.30;99.90
67750;DHT22;54550;48.838;8.828;2023-04-25T07:45:52;6.40;99.90
67750;DHT22;54550;48.838;8.828;2023-04-25T07:48:18;6.50;99.90
67750;DHT22;54550;48.838;8.828;2023-04-25T07:50:44;6.50;99.90
67750;DHT22;54550;48.838;8.828;2023-04-25T07:53:09;6.60;99.90
67750;DHT22;54550;48.838;8.828;2023-04-25T07:55:35;6.60;99.90
67750;DHT22;54550;48.838;8.828;2023-04-25T07:58:01;6.60;99.90
67750;DHT22;54550;48.838;8.828;2023-04-25T08:00:29;6.60;99.90
67750;DHT22;54550;48.838;8.828;2023-04-25T08:02:54;6.60;99.90
67750;DHT22;54550;48.838;8.828;2023-04-25T08:05:20;6.60;99.90
67750;DHT22;54550;48.838;8.828;2023-04-25T08:07:45;6.60;99.90
67750;DHT22;54550;48.838;8.828;2023-04-25T08:10:11;6.60;99.90
67750;DHT22;54550;48.838;8.828;2023-04-25T08:12:36;6.70;99.90
67750;DHT22;54550;48.838;8.828;2023-04-25T08:15:03;6.70;99.90
67750;DHT22;54550;48.838;8.828;2023-04-25T08:17:28;6.70;99.90
67750;DHT22;54550;48.838;8.828;2023-04-25T08:19:54;6.70;99.90
67750;DHT22;54550;48.838;8.828;2023-04-25T08:22:20;6.60;99.90
67750;DHT22;54550;48.838;8.828;2023-04-25T08:24:46;6.60;99.90
67750;DHT22;54550;48.838;8.828;2023-04-25T08:27:11;6.50;99.90
67750;DHT22;54550;48.838;8.828;2023-04-25T08:29:37;6.40;99.90
67750;DHT22;54550;48.838;8.828;2023-04-25T08:32:03;6.40;99.90
67750;DHT22;54550;48.838;8.828;2023-04-25T08:34:28;6.30;99.90
67750;DHT22;54550;48.838;8.828;2023-04-25T08:36:54;6.20;99.90
67750;DHT22;54550;48.838;8.828;2023-04-25T08:39:19;6.20;99.90
67750;DHT22;54550;48.838;8.828;2023-04-25T08:41:46;6.10;99.90
67750;DHT22;54550;48.838;8.828;2023-04-25T08:44:11;6.00;99.90
67750;DHT22;54550;48.838;8.828;2023-04-25T08:46:40;5.90;99.90
67750;DHT22;54550;48.838;8.828;2023-04-25T08:49:07;5.80;99.90
67750;DHT22;54550;48.838;8.828;2023-04-25T08:51:36;5.80;99.90
67750;DHT22;54550;48.838;8.828;2023-04-25T08:54:11;5.80;99.90
67750;DHT22;54550;48.838;8.828;2023-04-25T08:56:47;5.70;99.90
67750;DHT22;54550;48.838;8.828;2023-04-25T08:59:13;5.70;99.90
67750;DHT22;54550;48.838;8.828;2023-04-25T09:01:39;5.80;99.90
67750;DHT22;54550;48.838;8.828;2023-04-25T09:04:05;5.90;99.90
67750;DHT22;54550;48.838;8.828;2023-04-25T09:06:31;6.00;99.90
67750;DHT22;54550;48.838;8.828;2023-04-25T09:09:04;6.00;99.90
67750;DHT22;54550;48.838;8.828;2023-04-25T09:11:30;6.00;99.90
67750;DHT22;54550;48.838;8.828;2023-04-25T09:19:35;6.00;99.90
67750;DHT22;54550;48.838;8.828;2023-04-25T09:22:03;6.10;99.90
67750;DHT22;54550;48.838;8.828;2023-04-25T09:24:37;6.20;99.90
67750;DHT22;54550;48.838;8.828;2023-04-25T09:27:13;6.10;99.90
67750;DHT22;54550;48.838;8.828;2023-04-25T09:29:43;6.10;99.90
67750;DHT22;54550;48.838;8.828;2023-04-25T09:34:42;6.00;99.90
67750;DHT22;54550;48.838;8.828;2023-04-25T09:37:11;6.00;99.90
67750;DHT22;54550;48.838;8.828;2023-04-25T09:39:40;6.10;99.90
67750;DHT22;54550;48.838;8.828;2023-04-25T09:42:06;6.10;99.90
67750;DHT22;54550;48.838;8.828;2023-04-25T09:44:31;6.30;99.90
67750;DHT22;54550;48.838;8.828;2023-04-25T09:46:57;6.30;99.90
67750;DHT22;54550;48.838;8.828;2023-04-25T09:49:25;6.40;99.90
67750;DHT22;54550;48.838;8.828;2023-04-25T09:51:58;6.40;99.90
67750;DHT22;54550;48.838;8.828;2023-04-25T09:54:24;6.30;99.90
67750;DHT22;54550;48.838;8.828;2023-04-25T09:56:52;6.30;99.90
67750;DHT22;54550;48.838;8.828;2023-04-25T09:59:20;6.40;99.90
67750;DHT22;54550;48.838;8.828;2023-04-25T10:01:48;6.50;99.90
67750;DHT22;54550;48.838;8.828;2023-04-25T10:04:19;6.50;99.90
67750;DHT22;54550;48.838;8.828;2023-04-25T10:06:49;6.60;99.90
67750;DHT22;54550;48.838;8.828;2023-04-25T10:09:15;6.60;99.90
67750;DHT22;54550;48.838;8.828;2023-04-25T10:11:43;6.60;99.90
67750;DHT22;54550;48.838;8.828;2023-04-25T10:14:09;6.50;99.90
67750;DHT22;54550;48.838;8.828;2023-04-25T10:16:37;6.40;99.90
67750;DHT22;54550;48.838;8.828;2023-04-25T10:19:03;6.20;99.90
67750;DHT22;54550;48.838;8.828;2023-04-25T10:21:31;6.10;99.90
67750;DHT22;54550;48.838;8.828;2023-04-25T10:24:00;6.00;99.90
67750;DHT22;54550;48.838;8.828;2023-04-25T10:26:25;5.70;99.90
67750;DHT22;54550;48.838;8.828;2023-04-25T10:28:59;5.50;99.90
67750;DHT22;54550;48.838;8.828;2023-04-25T10:31:26;5.40;99.90
67750;DHT22;54550;48.838;8.828;2023-04-25T10:33:52;5.50;99.90
67750;DHT22;54550;48.838;8.828;2023-04-25T10:36:20;5.60;99.90
67750;DHT22;54550;48.838;8.828;2023-04-25T10:38:49;5.80;99.90
67750;DHT22;54550;48.838;8.828;2023-04-25T10:41:19;5.80;99.90
67750;DHT22;54550;48.838;8.828;2023-04-25T10:43:49;5.90;99.90
67750;DHT22;54550;48.838;8.828;2023-04-25T10:46:24;6.10;99.90
67750;DHT22;54550;48.838;8.828;2023-04-25T10:48:54;6.30;99.90
67750;DHT22;54550;48.838;8.828;2023-04-25T10:51:25;6.50;99.90
67750;DHT22;54550;48.838;8.828;2023-04-25T10:56:23;6.60;99.90
67750;DHT22;54550;48.838;8.828;2023-04-25T10:58:50;6.50;99.90
67750;DHT22;54550;48.838;8.828;2023-04-25T11:01:20;6.50;99.90
67750;DHT22;54550;48.838;8.828;2023-04-25T11:03:46;6.50;99.90
67750;DHT22;54550;48.838;8.828;2023-04-25T11:06:23;6.60;99.90
67750;DHT22;54550;48.838;8.828;2023-04-25T11:08:50;6.40;99.90
67750;DHT22;54550;48.838;8.828;2023-04-25T11:11:17;6.40;99.90
67750;DHT22;54550;48.838;8.828;2023-04-25T11:13:43;6.50;99.90
67750;DHT22;54550;48.838;8.828;2023-04-25T11:16:09;6.40;99.90
67750;DHT22;54550;48.838;8.828;2023-04-25T11:18:35;6.40;99.90
67750;DHT22;54550;48.838;8.828;2023-04-25T11:21:02;6.10;99.90
67750;DHT22;54550;48.838;8.828;2023-04-25T11:23:29;5.90;99.90
67750;DHT22;54550;48.838;8.828;2023-04-25T11:25:55;5.70;99.90
67750;DHT22;54550;48.838;8.828;2023-04-25T11:28:22;5.50;99.90
67750;DHT22;54550;48.838;8.828;2023-04-25T11:30:48;5.50;99.90
67750;DHT22;54550;48.838;8.828;2023-04-25T11:33:15;5.60;99.90
67750;DHT22;54550;48.838;8.828;2023-04-25T11:35:41;5.70;99.90
67750;DHT22;54550;48.838;8.828;2023-04-25T11:38:06;5.70;99.90
67750;DHT22;54550;48.838;8.828;2023-04-25T11:40:32;5.90;99.90
67750;DHT22;54550;48.838;8.828;2023-04-25T11:43:00;6.10;99.90
67750;DHT22;54550;48.838;8.828;2023-04-25T11:45:26;6.50;99.90
67750;DHT22;54550;48.838;8.828;2023-04-25T11:47:52;6.90;99.90
67750;DHT22;54550;48.838;8.828;2023-04-25T11:50:18;7.20;99.90
67750;DHT22;54550;48.838;8.828;2023-04-25T11:52:46;7.40;99.90
67750;DHT22;54550;48.838;8.828;2023-04-25T11:55:16;7.50;99.90
67750;DHT22;54550;48.838;8.828;2023-04-25T11:57:44;7.50;99.90
67750;DHT22;54550;48.838;8.828;2023-04-25T12:00:15;7.50;99.90
67750;DHT22;54550;48.838;8.828;2023-04-25T12:02:44;7.60;99.90
67750;DHT22;54550;48.838;8.828;2023-04-25T12:05:11;7.90;99.90
67750;DHT22;54550;48.838;8.828;2023-04-25T12:07:37;7.90;99.90
67750;DHT22;54550;48.838;8.828;2023-04-25T12:10:08;7.80;99.90
67750;DHT22;54550;48.838;8.828;2023-04-25T12:12:35;7.80;99.90
67750;DHT22;54550;48.838;8.828;2023-04-25T12:15:24;8.30;99.90
67750;DHT22;54550;48.838;8.828;2023-04-25T12:17:51;8.80;99.90
67750;DHT22;54550;48.838;8.828;2023-04-25T12:20:19;9.40;99.90
67750;DHT22;54550;48.838;8.828;2023-04-25T12:22:47;9.90;99.90
67750;DHT22;54550;48.838;8.828;2023-04-25T12:28:20;10.40;99.90
67750;DHT22;54550;48.838;8.828;2023-04-25T12:31:06;10.20;99.90
67750;DHT22;54550;48.838;8.828;2023-04-25T12:33:36;10.10;99.90
67750;DHT22;54550;48.838;8.828;2023-04-25T12:36:03;9.80;99.90
67750;DHT22;54550;48.838;8.828;2023-04-25T12:38:36;9.40;99.90
67750;DHT22;54550;48.838;8.828;2023-04-25T12:41:02;8.80;99.90
67750;DHT22;54550;48.838;8.828;2023-04-25T12:43:28;8.30;99.90
67750;DHT22;54550;48.838;8.828;2023-04-25T12:45:54;8.20;99.90
67750;DHT22;54550;48.838;8.828;2023-04-25T12:48:20;8.10;99.90
67750;DHT22;54550;48.838;8.828;2023-04-25T12:50:47;8.40;99.90
67750;DHT22;54550;48.838;8.828;2023-04-25T12:53:15;8.80;99.90
67750;DHT22;54550;48.838;8.828;2023-04-25T12:55:41;9.10;99.90
67750;DHT22;54550;48.838;8.828;2023-04-25T12:58:06;9.30;99.90
67750;DHT22;54550;48.838;8.828;2023-04-25T13:00:33;9.70;99.90
67750;DHT22;54550;48.838;8.828;2023-04-25T13:02:59;9.90;99.90
67750;DHT22;54550;48.838;8.828;2023-04-25T13:05:25;10.10;99.90
67750;DHT22;54550;48.838;8.828;2023-04-25T13:07:51;9.90;99.90
67750;DHT22;54550;48.838;8.828;2023-04-25T13:10:17;9.70;99.90
67750;DHT22;54550;48.838;8.828;2023-04-25T13:12:43;9.90;99.90
67750;DHT22;54550;48.838;8.828;2023-04-25T13:15:09;10.00;99.90
67750;DHT22;54550;48.838;8.828;2023-04-25T13:17:37;10.40;99.90
67750;DHT22;54550;48.838;8.828;2023-04-25T13:20:04;10.60;99.90
67750;DHT22;54550;48.838;8.828;2023-04-25T13:22:34;11.00;99.90
67750;DHT22;54550;48.838;8.828;2023-04-25T13:25:02;11.30;99.90
67750;DHT22;54550;48.838;8.828;2023-04-25T13:27:28;11.90;99.90
67750;DHT22;54550;48.838;8.828;2023-04-25T13:29:54;11.80;99.90
67750;DHT22;54550;48.838;8.828;2023-04-25T13:32:20;11.20;99.90
67750;DHT22;54550;48.838;8.828;2023-04-25T13:34:45;10.60;99.90
67750;DHT22;54550;48.838;8.828;2023-04-25T13:37:11;10.20;99.90
67750;DHT22;54550;48.838;8.828;2023-04-25T13:39:36;9.80;99.90
67750;DHT22;54550;48.838;8.828;2023-04-25T13:42:02;9.70;99.90
67750;DHT22;54550;48.838;8.828;2023-04-25T13:44:28;9.80;99.90
67750;DHT22;54550;48.838;8.828;2023-04-25T13:46:53;9.90;99.90
67750;DHT22;54550;48.838;8.828;2023-04-25T13:49:19;10.00;99.90
67750;DHT22;54550;48.838;8.828;2023-04-25T13:51:45;10.10;99.90
67750;DHT22;54550;48.838;8.828;2023-04-25T13:54:10;10.30;99.90
67750;DHT22;54550;48.838;8.828;2023-04-25T13:56:36;10.30;99.90
67750;DHT22;54550;48.838;8.828;2023-04-25T13:59:02;10.30;99.90
67750;DHT22;54550;48.838;8.828;2023-04-25T14:01:27;10.30;99.90
67750;DHT22;54550;48.838;8.828;2023-04-25T14:03:53;10.70;99.90
67750;DHT22;54550;48.838;8.828;2023-04-25T14:06:19;10.50;99.90
67750;DHT22;54550;48.838;8.828;2023-04-25T14:08:49;10.80;99.90
67750;DHT22;54550;48.838;8.828;2023-04-25T14:11:15;11.90;99.90
67750;DHT22;54550;48.838;8.828;2023-04-25T14:13:40;11.80;99.90
67750;DHT22;54550;48.838;8.828;2023-04-25T14:16:06;11.60;99.90
67750;DHT22;54550;48.838;8.828;2023-04-25T14:18:32;11.60;99.90
67750;DHT22;54550;48.838;8.828;2023-04-25T14:20:57;11.70;99.90
67750;DHT22;54550;48.838;8.828;2023-04-25T14:23:23;11.80;99.90
67750;DHT22;54550;48.838;8.828;2023-04-25T14:25:48;11.70;99.90
67750;DHT22;54550;48.838;8.828;2023-04-25T14:28:14;11.70;99.90
67750;DHT22;54550;48.838;8.828;2023-04-25T14:30:40;12.20;99.90
67750;DHT22;54550;48.838;8.828;2023-04-25T14:33:05;12.70;99.90
67750;DHT22;54550;48.838;8.828;2023-04-25T14:35:31;12.50;99.90
67750;DHT22;54550;48.838;8.828;2023-04-25T14:37:57;11.90;99.90
67750;DHT22;54550;48.838;8.828;2023-04-25T14:40:23;11.30;99.90
67750;DHT22;54550;48.838;8.828;2023-04-25T14:42:48;11.00;99.90
67750;DHT22;54550;48.838;8.828;2023-04-25T14:45:15;10.80;99.90
67750;DHT22;54550;48.838;8.828;2023-04-25T14:47:41;10.70;99.90
67750;DHT22;54550;48.838;8.828;2023-04-25T14:50:07;10.60;99.90
67750;DHT22;54550;48.838;8.828;2023-04-25T14:52:33;10.40;99.90
67750;DHT22;54550;48.838;8.828;2023-04-25T14:54:59;10.40;99.90
67750;DHT22;54550;48.838;8.828;2023-04-25T14:57:34;10.40;99.90
67750;DHT22;54550;48.838;8.828;2023-04-25T15:00:00;10.70;99.90
67750;DHT22;54550;48.838;8.828;2023-04-25T15:02:26;12.10;99.90
67750;DHT22;54550;48.838;8.828;2023-04-25T15:04:52;14.00;99.90
67750;DHT22;54550;48.838;8.828;2023-04-25T15:07:18;16.00;99.90
67750;DHT22;54550;48.838;8.828;2023-04-25T15:09:43;16.70;99.30
67750;DHT22;54550;48.838;8.828;2023-04-25T15:12:09;16.60;99.40
67750;DHT22;54550;48.838;8.828;2023-04-25T15:14:35;16.20;99.90
67750;DHT22;54550;48.838;8.828;2023-04-25T15:17:01;15.20;99.50
67750;DHT22;54550;48.838;8.828;2023-04-25T15:19:27;14.00;99.90
67750;DHT22;54550;48.838;8.828;2023-04-25T15:21:53;13.00;99.90
67750;DHT22;54550;48.838;8.828;2023-04-25T15:24:19;12.40;99.90
67750;DHT22;54550;48.838;8.828;2023-04-25T15:26:45;12.40;99.90
67750;DHT22;54550;48.838;8.828;2023-04-25T15:29:11;12.20;99.90
67750;DHT22;54550;48.838;8.828;2023-04-25T15:31:37;11.80;99.90
67750;DHT22;54550;48.838;8.828;2023-04-25T15:34:02;11.50;99.90
67750;DHT22;54550;48.838;8.828;2023-04-25T15:36:28;11.40;99.90
67750;DHT22;54550;48.838;8.828;2023-04-25T15:38:54;11.10;99.90
67750;DHT22;54550;48.838;8.828;2023-04-25T15:41:19;10.60;99.90
67750;DHT22;54550;48.838;8.828;2023-04-25T15:43:47;10.30;99.90
67750;DHT22;54550;48.838;8.828;2023-04-25T15:46:13;10.00;99.90
67750;DHT22;54550;48.838;8.828;2023-04-25T15:48:39;10.20;99.90
67750;DHT22;54550;48.838;8.828;2023-04-25T15:51:04;10.10;99.90